Time;durP1;ratioP1;P1;durP2;ratioP2;P2;SDS_P1;SDS_P2;PMS_P1;PMS_P2;Temp;Humidity;BMP_temperature;BMP_pressure;BME280_temperature;BME280_humidity;BME280_pressure;Samples;Min_cycle;Max_cycle;Signal;HPM_P1;HPM_P2
2022/03/21 00:00:50;;;;;;;95.25;39.15;;;1.70;1.00;;;;;;5079343;28;20037;-80
2022/03/21 00:03:19;;;;;;;84.50;37.67;;;1.60;1.00;;;;;;5079879;28;20032;-80
2022/03/21 00:05:45;;;;;;;79.03;36.15;;;1.70;1.00;;;;;;5078839;28;20103;-81
2022/03/21 00:08:12;;;;;;;79.15;36.65;;;1.40;1.00;;;;;;5079364;28;20005;-81
2022/03/21 00:10:41;;;;;;;81.95;36.83;;;1.10;1.00;;;;;;5079326;28;20021;-80
2022/03/21 00:13:07;;;;;;;78.93;37.28;;;1.00;1.00;;;;;;5079145;28;20033;-81
2022/03/21 00:15:34;;;;;;;81.60;37.00;;;0.90;1.00;;;;;;5078530;28;20060;-80
2022/03/21 00:18:02;;;;;;;80.78;37.05;;;1.00;1.00;;;;;;5078790;28;20086;-81
2022/03/21 00:20:29;;;;;;;80.28;35.78;;;0.80;1.00;;;;;;5078942;28;20013;-81
2022/03/21 00:22:55;;;;;;;72.30;36.00;;;0.70;1.00;;;;;;5078912;28;20033;-81
2022/03/21 00:25:21;;;;;;;79.82;36.15;;;0.60;1.00;;;;;;5078039;28;20058;-81
2022/03/21 00:27:47;;;;;;;69.28;35.95;;;0.60;1.00;;;;;;5077166;28;20033;-81
2022/03/21 00:30:13;;;;;;;72.65;35.22;;;0.60;1.00;;;;;;5076219;28;20029;-80
2022/03/21 00:32:39;;;;;;;73.35;36.13;;;0.60;1.00;;;;;;5076020;28;20029;-81
2022/03/21 00:35:06;;;;;;;84.80;38.83;;;0.60;1.00;;;;;;5076945;28;20019;-81
2022/03/21 00:37:34;;;;;;;81.10;37.13;;;0.80;1.00;;;;;;5075882;28;20049;-81
2022/03/21 00:40:00;;;;;;;86.63;39.45;;;0.80;1.00;;;;;;5059326;28;20076;-81
2022/03/21 00:42:26;;;;;;;80.47;37.83;;;0.80;1.00;;;;;;5073160;28;20077;-81
2022/03/21 00:44:52;;;;;;;69.90;34.53;;;0.70;1.00;;;;;;5057887;28;20034;-81
2022/03/21 00:47:18;;;;;;;72.57;34.20;;;0.50;1.00;;;;;;5056002;28;20041;-81
2022/03/21 00:49:44;;;;;;;74.13;35.15;;;0.40;1.00;;;;;;5068155;28;20452;-81
2022/03/21 00:52:10;;;;;;;73.93;34.92;;;0.30;1.00;;;;;;5071726;28;20021;-81
2022/03/21 00:54:35;;;;;;;71.70;32.60;;;0.30;1.00;;;;;;5060824;28;20024;-82
2022/03/21 00:57:02;;;;;;;69.85;34.13;;;0.30;1.00;;;;;;5050379;28;20021;-80
2022/03/21 00:59:28;;;;;;;69.00;34.92;;;0.30;1.00;;;;;;5058055;28;20362;-81
2022/03/21 01:01:53;;;;;;;73.35;35.88;;;0.20;1.00;;;;;;5058648;28;20491;-82
2022/03/21 01:04:19;;;;;;;75.13;34.90;;;0.20;1.00;;;;;;5058227;28;20028;-82
2022/03/21 01:06:44;;;;;;;69.38;34.33;;;0.20;1.00;;;;;;5058296;28;20032;-82
2022/03/21 01:09:23;;;;;;;74.28;35.03;;;0.10;1.00;;;;;;5057086;28;20021;-82
2022/03/21 01:11:49;;;;;;;74.93;34.17;;;0.10;1.00;;;;;;5037221;28;20029;-82
2022/03/21 01:14:14;;;;;;;70.82;33.47;;;0.10;1.00;;;;;;5052922;28;20045;-82
2022/03/21 01:16:40;;;;;;;75.30;35.20;;;0.10;1.00;;;;;;5057670;28;20457;-83
2022/03/21 01:19:06;;;;;;;72.90;33.70;;;0.00;1.00;;;;;;5057283;28;20372;-80
2022/03/21 01:21:33;;;;;;;72.07;35.00;;;-0.10;1.00;;;;;;5057739;28;20143;-82
2022/03/21 01:23:59;;;;;;;75.13;35.65;;;-0.10;1.00;;;;;;5057353;28;20020;-80
2022/03/21 01:26:24;;;;;;;71.88;34.97;;;-0.10;1.00;;;;;;5055977;28;20037;-81
2022/03/21 01:28:50;;;;;;;68.10;34.10;;;-0.10;1.00;;;;;;5036616;28;20018;-81
2022/03/21 01:31:16;;;;;;;67.05;34.08;;;-0.20;1.00;;;;;;5051870;28;20097;-81
2022/03/21 01:33:41;;;;;;;68.30;34.17;;;-0.10;1.00;;;;;;5056920;28;20025;-81
2022/03/21 01:36:08;;;;;;;68.25;34.05;;;-0.20;1.00;;;;;;5057181;28;20029;-81
2022/03/21 01:38:34;;;;;;;65.80;33.03;;;-0.20;1.00;;;;;;5056845;28;20021;-82
2022/03/21 01:41:00;;;;;;;71.28;34.72;;;-0.30;1.00;;;;;;5056546;28;20036;-82
2022/03/21 01:43:26;;;;;;;72.30;33.58;;;-0.20;1.00;;;;;;5056634;28;20056;-80
2022/03/21 01:45:52;;;;;;;72.00;34.28;;;-0.20;1.00;;;;;;5056576;28;20025;-80
2022/03/21 01:48:17;;;;;;;74.78;35.35;;;-0.30;1.00;;;;;;5057093;28;20028;-81
2022/03/21 01:50:43;;;;;;;70.38;35.35;;;-0.30;1.00;;;;;;5057027;28;20082;-81
2022/03/21 01:55:57;;;;;;;75.22;34.30;;;-0.20;1.00;;;;;;5056786;28;20043;-81
2022/03/21 01:58:25;;;;;;;71.32;33.35;;;-0.20;1.00;;;;;;5056187;28;20116;-81
2022/03/21 02:00:51;;;;;;;76.85;34.95;;;-0.30;1.00;;;;;;5056061;28;20025;-81
2022/03/21 02:03:21;;;;;;;74.25;33.67;;;-0.30;1.00;;;;;;5055951;28;20017;-81
2022/03/21 02:05:47;;;;;;;77.03;36.00;;;-0.30;1.00;;;;;;5056732;28;20036;-82
2022/03/21 02:08:13;;;;;;;82.13;35.00;;;-0.10;1.00;;;;;;5054618;28;20683;-81
2022/03/21 02:10:41;;;;;;;80.95;38.40;;;0.10;1.00;;;;;;5055835;28;20033;-81
2022/03/21 02:13:08;;;;;;;83.97;36.42;;;0.60;1.00;;;;;;5055716;28;20124;-81
2022/03/21 02:15:34;;;;;;;74.93;38.63;;;0.40;1.00;;;;;;5048616;28;20048;-81
2022/03/21 02:18:01;;;;;;;82.80;37.90;;;0.00;1.00;;;;;;5055402;28;20029;-82
2022/03/21 02:20:30;;;;;;;71.75;34.38;;;0.00;1.00;;;;;;5055164;28;20432;-81
2022/03/21 02:23:13;;;;;;;76.80;36.80;;;-0.10;1.00;;;;;;5054875;28;20055;-82
2022/03/21 02:25:42;;;;;;;78.85;34.97;;;-0.10;1.00;;;;;;5035601;28;20128;-82
2022/03/21 02:28:33;;;;;;;75.97;34.73;;;0.10;1.00;;;;;;5035018;28;20065;-82
2022/03/21 02:30:59;;;;;;;75.68;34.03;;;-0.20;1.00;;;;;;5035080;28;20322;-82
2022/03/21 02:33:24;;;;;;;79.03;35.45;;;-0.20;1.00;;;;;;5034958;28;20119;-82
2022/03/21 02:35:51;;;;;;;73.10;35.22;;;0.10;1.00;;;;;;5038664;28;20103;-83
2022/03/21 02:38:18;;;;;;;75.15;34.80;;;-0.10;1.00;;;;;;5054601;28;20079;-82
2022/03/21 02:40:44;;;;;;;79.80;35.50;;;-0.20;1.00;;;;;;5054900;28;20108;-82
2022/03/21 02:43:09;;;;;;;74.43;35.33;;;-0.20;1.00;;;;;;5054735;28;20104;-82
2022/03/21 02:45:35;;;;;;;77.60;36.65;;;-0.30;1.00;;;;;;5054909;28;20021;-82
2022/03/21 02:48:00;;;;;;;72.18;36.00;;;-0.30;1.00;;;;;;5055083;28;20456;-82
2022/03/21 02:50:39;;;;;;;83.20;36.00;;;-0.30;1.00;;;;;;5054542;28;20364;-81
2022/03/21 02:53:08;;;;;;;78.15;34.90;;;-0.10;1.00;;;;;;5054675;28;20075;-82
2022/03/21 02:55:33;;;;;;;78.57;36.10;;;-0.30;1.00;;;;;;5054817;28;20417;-82
2022/03/21 02:57:59;;;;;;;71.70;34.58;;;-0.40;1.00;;;;;;5054132;28;20028;-82
2022/03/21 03:00:25;;;;;;;69.97;33.38;;;-0.40;1.00;;;;;;5054836;28;20329;-82
2022/03/21 03:02:51;;;;;;;75.65;36.80;;;-0.50;1.00;;;;;;5054717;28;20018;-83
2022/03/21 03:05:16;;;;;;;78.88;35.03;;;-0.10;1.00;;;;;;5055073;28;20029;-82
2022/03/21 03:07:42;;;;;;;79.60;36.83;;;0.00;1.00;;;;;;5055059;28;20033;-83
2022/03/21 03:10:08;;;;;;;74.88;36.78;;;-0.30;1.00;;;;;;5054662;28;20032;-83
2022/03/21 03:12:33;;;;;;;72.60;34.55;;;-0.30;1.00;;;;;;5054669;28;20507;-82
2022/03/21 03:14:59;;;;;;;73.45;34.72;;;-0.40;1.00;;;;;;5054045;28;20052;-83
2022/03/21 03:17:24;;;;;;;72.65;34.60;;;-0.30;1.00;;;;;;5054112;28;20021;-82
2022/03/21 03:19:50;;;;;;;73.85;34.60;;;-0.30;1.00;;;;;;5053810;28;20035;-83
2022/03/21 03:22:17;;;;;;;70.18;34.38;;;-0.50;1.00;;;;;;5053438;28;20036;-83
2022/03/21 03:24:44;;;;;;;68.97;32.95;;;-0.60;1.00;;;;;;5053458;28;20734;-84
2022/03/21 03:27:09;;;;;;;78.93;34.75;;;-0.50;1.00;;;;;;5053778;28;20049;-82
2022/03/21 03:29:35;;;;;;;74.43;32.70;;;-0.40;1.00;;;;;;5053508;28;20048;-83
2022/03/21 03:32:03;;;;;;;79.28;36.33;;;-0.50;1.00;;;;;;5053570;28;20073;-83
2022/03/21 03:34:30;;;;;;;75.90;35.72;;;-0.50;1.00;;;;;;5054042;28;20033;-83
2022/03/21 03:36:56;;;;;;;80.45;35.08;;;-0.60;1.00;;;;;;5053854;28;20384;-84
2022/03/21 03:39:35;;;;;;;75.88;35.55;;;-0.60;1.00;;;;;;5053510;28;20025;-83
2022/03/21 03:42:00;;;;;;;80.18;35.63;;;-0.60;1.00;;;;;;5053993;28;20083;-83
2022/03/21 03:44:38;;;;;;;78.80;35.53;;;-0.70;1.00;;;;;;5053832;28;20428;-83
2022/03/21 03:47:04;;;;;;;79.68;35.15;;;-0.40;1.00;;;;;;5054045;28;20025;-83
2022/03/21 03:49:30;;;;;;;76.72;34.97;;;-0.40;1.00;;;;;;5054489;28;20064;-84
2022/03/21 03:51:55;;;;;;;71.53;35.83;;;-0.60;1.00;;;;;;5057984;28;20049;-83
2022/03/21 03:54:21;;;;;;;75.55;37.38;;;-0.60;1.00;;;;;;5057850;28;20021;-83
2022/03/21 03:56:47;;;;;;;79.53;35.10;;;-0.70;1.00;;;;;;5057485;28;20083;-84
2022/03/21 03:59:14;;;;;;;80.88;34.47;;;-0.70;1.00;;;;;;5056625;28;20506;-84
2022/03/21 04:01:40;;;;;;;88.70;39.45;;;-0.30;1.00;;;;;;5057845;28;20021;-83
2022/03/21 04:04:05;;;;;;;86.20;38.25;;;0.10;1.00;;;;;;5057669;28;20093;-84
2022/03/21 04:06:31;;;;;;;95.30;39.17;;;0.00;1.00;;;;;;5057419;28;20764;-84
2022/03/21 04:08:58;;;;;;;92.68;38.35;;;0.10;6.20;;;;;;5057409;28;20515;-83
2022/03/21 04:11:24;;;;;;;95.32;39.13;;;0.10;42.60;;;;;;5061716;28;20032;-83
2022/03/21 04:13:49;;;;;;;90.82;39.22;;;0.10;99.90;;;;;;5061217;28;20021;-83
2022/03/21 04:16:15;;;;;;;89.45;38.97;;;-0.10;99.90;;;;;;5062204;28;20045;-83
2022/03/21 04:18:41;;;;;;;82.45;35.97;;;-0.20;99.90;;;;;;5062484;28;20079;-83
2022/03/21 04:21:06;;;;;;;86.82;37.47;;;-0.40;99.90;;;;;;5062487;28;20357;-83
2022/03/21 04:23:32;;;;;;;88.85;37.55;;;-0.50;99.90;;;;;;5061518;28;20571;-84
2022/03/21 04:25:58;;;;;;;90.15;40.08;;;-0.20;99.90;;;;;;5057627;28;20025;-83
2022/03/21 04:28:24;;;;;;;86.00;38.80;;;0.00;98.10;;;;;;5057286;28;20539;-83
2022/03/21 04:30:49;;;;;;;92.20;39.38;;;0.20;78.10;;;;;;5056933;28;20076;-84
2022/03/21 04:33:15;;;;;;;85.25;36.97;;;0.20;75.80;;;;;;5056739;28;20031;-82
2022/03/21 04:35:43;;;;;;;91.10;39.65;;;0.00;54.80;;;;;;5056994;28;20017;-84
2022/03/21 04:38:16;;;;;;;95.45;38.80;;;0.20;60.30;;;;;;5056852;28;20078;-84
2022/03/21 04:40:48;;;;;;;92.25;38.20;;;0.20;71.60;;;;;;5056932;28;20024;-84
2022/03/21 04:43:15;;;;;;;91.75;38.13;;;0.30;87.70;;;;;;5057086;28;20023;-83
2022/03/21 04:45:45;;;;;;;90.75;37.75;;;0.20;84.60;;;;;;5056667;28;20029;-84
2022/03/21 04:48:11;;;;;;;91.30;38.30;;;0.40;95.30;;;;;;5056392;28;20052;-83
2022/03/21 04:50:43;;;;;;;94.35;39.83;;;0.40;94.70;;;;;;5056036;28;20064;-83
2022/03/21 04:53:10;;;;;;;93.43;38.88;;;0.40;99.80;;;;;;5044050;28;20492;-83
2022/03/21 04:55:37;;;;;;;87.22;37.40;;;0.30;99.80;;;;;;5036342;28;20017;-83
2022/03/21 04:58:15;;;;;;;83.32;35.83;;;0.00;80.40;;;;;;5054423;28;20037;-83
2022/03/21 05:00:40;;;;;;;78.82;37.10;;;-0.10;61.70;;;;;;5056137;28;20079;-83
2022/03/21 05:03:07;;;;;;;86.38;37.22;;;-0.30;50.60;;;;;;5056449;28;20029;-83
2022/03/21 05:05:37;;;;;;;82.30;37.75;;;-0.20;62.00;;;;;;5056527;28;20024;-83
2022/03/21 05:08:04;;;;;;;83.60;36.40;;;-0.20;60.60;;;;;;5056084;28;20078;-83
2022/03/21 05:10:31;;;;;;;86.68;37.47;;;-0.30;51.90;;;;;;5055900;28;20045;-83
2022/03/21 05:12:57;;;;;;;88.03;37.08;;;-0.40;44.70;;;;;;5056113;28;20028;-84
2022/03/21 05:15:23;;;;;;;72.65;35.65;;;-0.50;41.00;;;;;;5055324;28;20045;-82
2022/03/21 05:17:52;;;;;;;80.72;37.67;;;-0.50;38.00;;;;;;5057071;28;20029;-86
2022/03/21 05:20:19;;;;;;;79.88;35.97;;;-0.50;34.20;;;;;;5058588;28;20017;-86
2022/03/21 05:31:02;;;;;;;78.10;35.70;;;-0.40;49.60;;;;;;5059153;28;20702;-86
2022/03/21 05:36:13;;;;;;;81.95;36.70;;;-0.50;29.40;;;;;;5055795;28;20035;-86
2022/03/21 05:38:50;;;;;;;81.53;37.28;;;-0.50;28.20;;;;;;5060218;28;20025;-86
2022/03/21 05:41:16;;;;;;;82.38;36.83;;;-0.50;25.80;;;;;;5059133;28;20028;-86
2022/03/21 05:43:41;;;;;;;82.30;35.22;;;-0.50;25.50;;;;;;5056724;28;20357;-86
2022/03/21 05:46:07;;;;;;;79.68;35.92;;;-0.50;24.60;;;;;;5054591;28;20032;-85
2022/03/21 05:51:24;;;;;;;74.65;34.47;;;-0.40;27.10;;;;;;5036920;28;20039;-86
2022/03/21 05:53:50;;;;;;;85.80;37.72;;;-0.30;49.90;;;;;;5037933;28;20494;-87
2022/03/21 05:56:16;;;;;;;90.20;37.97;;;-0.30;62.30;;;;;;5045297;28;20384;-85
2022/03/21 05:58:43;;;;;;;87.68;37.78;;;-0.30;64.20;;;;;;5055260;28;20074;-86
2022/03/21 06:01:11;;;;;;;90.25;37.95;;;-0.20;71.80;;;;;;5056067;28;20047;-85
2022/03/21 06:03:37;;;;;;;89.95;36.92;;;-0.10;77.80;;;;;;5055594;28;20021;-85
2022/03/21 06:06:02;;;;;;;88.30;38.30;;;-0.20;75.20;;;;;;5047834;28;20028;-84
2022/03/21 06:08:28;;;;;;;81.97;36.03;;;0.00;82.60;;;;;;5053277;28;20025;-84
2022/03/21 06:11:03;;;;;;;87.63;38.22;;;0.00;84.40;;;;;;5053113;28;20064;-84
2022/03/21 06:13:31;;;;;;;92.97;38.67;;;0.00;88.00;;;;;;5051205;28;20044;-84
2022/03/21 06:16:00;;;;;;;90.72;37.25;;;0.20;95.80;;;;;;5052736;28;20056;-84
2022/03/21 06:18:26;;;;;;;92.05;40.55;;;0.40;99.90;;;;;;5053204;28;20103;-84
2022/03/21 06:20:52;;;;;;;87.57;37.55;;;0.50;99.90;;;;;;5052873;28;20400;-84
2022/03/21 06:23:18;;;;;;;81.57;38.25;;;0.40;99.90;;;;;;5053399;28;20017;-84
2022/03/21 06:25:43;;;;;;;95.65;39.55;;;0.40;99.90;;;;;;5051210;28;20381;-84
2022/03/21 06:28:10;;;;;;;92.93;39.15;;;0.50;99.90;;;;;;5052317;28;20029;-83
2022/03/21 06:30:37;;;;;;;90.63;38.03;;;0.80;99.90;;;;;;5052130;28;20041;-84
2022/03/21 06:33:02;;;;;;;89.75;38.33;;;0.80;99.90;;;;;;5052436;28;20036;-85
2022/03/21 06:35:28;;;;;;;98.65;39.97;;;0.90;99.90;;;;;;5052216;28;20250;-85
2022/03/21 06:37:53;;;;;;;91.13;39.60;;;0.90;99.90;;;;;;5039232;28;20025;-84
2022/03/21 06:40:20;;;;;;;85.30;39.25;;;1.10;99.90;;;;;;5048748;28;20062;-84
2022/03/21 06:42:46;;;;;;;88.57;37.97;;;1.10;99.90;;;;;;5051945;28;20021;-85
2022/03/21 06:45:11;;;;;;;85.05;36.90;;;1.20;99.90;;;;;;5052023;28;20439;-83
2022/03/21 06:47:37;;;;;;;87.50;38.95;;;1.30;99.90;;;;;;5052307;28;20025;-84
2022/03/21 06:50:04;;;;;;;94.75;40.50;;;1.50;99.90;;;;;;5052289;28;20029;-85
2022/03/21 06:52:30;;;;;;;95.70;41.15;;;1.70;99.90;;;;;;5034769;28;20026;-85
2022/03/21 06:54:55;;;;;;;88.13;40.92;;;1.80;99.90;;;;;;5033355;28;20032;-85
2022/03/21 06:57:21;;;;;;;93.22;41.20;;;2.00;99.90;;;;;;5053432;28;20078;-85
2022/03/21 06:59:47;;;;;;;94.47;40.05;;;2.20;99.90;;;;;;5053362;28;20032;-85
2022/03/21 07:02:14;;;;;;;88.40;40.05;;;2.30;96.00;;;;;;5051942;28;20025;-85
2022/03/21 07:04:40;;;;;;;83.13;38.75;;;2.50;97.80;;;;;;5053078;28;20035;-85
2022/03/21 07:07:05;;;;;;;80.13;37.75;;;2.60;82.90;;;;;;5053366;28;20025;-83
2022/03/21 07:09:31;;;;;;;86.63;40.10;;;2.80;70.90;;;;;;5053800;28;20067;-83
2022/03/21 07:11:56;;;;;;;80.95;37.33;;;2.90;51.30;;;;;;5047987;28;20026;-83
2022/03/21 07:14:22;;;;;;;111.93;44.00;;;3.20;76.00;;;;;;5055283;28;20069;-82
2022/03/21 07:16:48;;;;;;;114.15;47.42;;;6.60;99.90;;;;;;5055208;28;20021;-83
2022/03/21 07:19:14;;;;;;;108.47;45.10;;;9.80;1.00;;;;;;5058176;28;20479;-84
2022/03/21 07:21:40;;;;;;;101.65;44.85;;;11.80;99.90;;;;;;5057952;28;20364;-84
2022/03/21 07:24:06;;;;;;;95.68;44.03;;;13.30;99.90;;;;;;5060027;28;20024;-84
2022/03/21 07:26:35;;;;;;;92.20;43.15;;;14.80;99.90;;;;;;5064136;28;20476;-85
2022/03/21 07:29:02;;;;;;;74.65;38.25;;;15.90;99.90;;;;;;5066391;28;20031;-84
2022/03/21 07:31:27;;;;;;;67.90;36.95;;;16.80;99.90;;;;;;5069762;28;20032;-83
2022/03/21 07:33:53;;;;;;;69.28;35.80;;;17.80;99.90;;;;;;5075165;28;20028;-83
2022/03/21 07:36:19;;;;;;;56.17;32.15;;;18.10;99.90;;;;;;5075381;28;20005;-83
2022/03/21 07:38:44;;;;;;;61.08;34.58;;;19.30;99.90;;;;;;5077362;28;20040;-84
2022/03/21 07:41:10;;;;;;;61.35;34.25;;;20.40;99.90;;;;;;5090720;28;20024;-83
2022/03/21 07:43:37;;;;;;;57.78;33.25;;;21.00;99.90;;;;;;5077956;28;20077;-83
2022/03/21 07:48:49;;;;;;;58.70;34.40;;;21.70;99.90;;;;;;5079946;28;20067;-83
2022/03/21 07:51:15;;;;;;;51.35;31.80;;;22.30;99.90;;;;;;5079668;28;20041;-83
2022/03/21 07:53:41;;;;;;;49.40;30.30;;;22.80;99.90;;;;;;5074510;28;20029;-82
2022/03/21 07:56:07;;;;;;;50.75;31.85;;;24.10;99.90;;;;;;5079648;28;20033;-82
2022/03/21 07:58:33;;;;;;;55.40;31.17;;;25.00;99.90;;;;;;5078406;28;20009;-82
2022/03/21 08:01:01;;;;;;;44.83;29.08;;;23.70;99.90;;;;;;5079107;28;20013;-82
2022/03/21 08:03:28;;;;;;;49.15;29.23;;;25.50;99.90;;;;;;5075933;28;20043;-82
2022/03/21 08:05:54;;;;;;;47.65;29.80;;;26.40;99.90;;;;;;5073495;28;20024;-82
2022/03/21 08:08:20;;;;;;;45.47;30.27;;;25.80;99.90;;;;;;5078077;28;20020;-82
2022/03/21 08:10:46;;;;;;;42.75;28.77;;;25.10;99.90;;;;;;5077487;28;20029;-82
2022/03/21 08:13:16;;;;;;;47.20;31.33;;;26.80;99.90;;;;;;5078224;28;20020;-82
2022/03/21 08:15:45;;;;;;;;;;;28.20;99.90;;;;;;5078043;28;20037;-82
2022/03/21 08:18:12;;;;;;;43.47;29.50;;;28.50;99.90;;;;;;5072535;28;19924;-83
2022/03/21 08:20:39;;;;;;;43.17;31.00;;;28.90;99.90;;;;;;5077708;28;20032;-83
2022/03/21 08:23:11;;;;;;;41.90;29.77;;;29.30;99.90;;;;;;5077846;28;20120;-83
2022/03/21 08:25:38;;;;;;;40.53;28.50;;;30.20;99.90;;;;;;5077416;28;20016;-83
2022/03/21 08:28:05;;;;;;;40.72;27.98;;;28.30;99.90;;;;;;5062235;28;20081;-83
2022/03/21 08:30:35;;;;;;;37.22;27.52;;;29.70;99.90;;;;;;5065559;28;20041;-83
2022/03/21 08:33:03;;;;;;;35.25;26.25;;;30.90;99.90;;;;;;5064018;28;20072;-83
2022/03/21 08:35:30;;;;;;;35.10;26.55;;;30.60;99.90;;;;;;5067815;28;20076;-83
2022/03/21 08:37:56;;;;;;;34.83;25.75;;;29.30;99.90;;;;;;5065818;28;20027;-83
2022/03/21 08:40:22;;;;;;;34.40;25.83;;;30.00;99.90;;;;;;5064405;28;20013;-83
2022/03/21 08:42:48;;;;;;;34.28;24.83;;;31.30;99.90;;;;;;5064074;28;20022;-83
2022/03/21 08:45:15;;;;;;;34.42;25.50;;;31.80;99.90;;;;;;5065218;28;20049;-83
2022/03/21 08:47:44;;;;;;;34.35;25.85;;;31.90;99.90;;;;;;5069224;28;20075;-84
2022/03/21 08:50:10;;;;;;;35.97;26.42;;;32.30;99.90;;;;;;5070424;28;20040;-82
2022/03/21 08:52:37;;;;;;;33.28;25.80;;;31.30;99.90;;;;;;5064469;28;20018;-83
2022/03/21 08:55:04;;;;;;;32.30;24.92;;;30.20;99.90;;;;;;5064590;28;20047;-83
2022/03/21 08:57:30;;;;;;;31.13;24.38;;;31.10;99.90;;;;;;5064774;28;20063;-83
2022/03/21 08:59:56;;;;;;;32.28;24.60;;;32.00;99.90;;;;;;5069577;28;20044;-84
2022/03/21 09:02:21;;;;;;;31.45;23.08;;;32.70;99.90;;;;;;5060366;28;20064;-83
2022/03/21 09:04:47;;;;;;;31.50;23.23;;;32.00;99.90;;;;;;5070638;28;20191;-83
2022/03/21 09:07:13;;;;;;;31.13;23.27;;;32.90;99.90;;;;;;5066392;28;20010;-83
2022/03/21 09:09:39;;;;;;;29.40;23.48;;;33.70;99.90;;;;;;5064736;28;20029;-84
2022/03/21 09:12:07;;;;;;;28.58;21.92;;;32.70;99.90;;;;;;5076733;28;20029;-83
2022/03/21 09:14:33;;;;;;;28.83;22.23;;;32.70;99.90;;;;;;5075780;28;20139;-83
2022/03/21 09:17:00;;;;;;;26.77;20.80;;;33.40;99.90;;;;;;5085300;28;20384;-85
2022/03/21 09:19:27;;;;;;;25.75;20.52;;;33.10;99.90;;;;;;5059787;28;20037;-87
2022/03/21 09:21:53;;;;;;;24.95;19.65;;;32.90;99.90;;;;;;5060776;28;20052;-86
2022/03/21 09:24:19;;;;;;;25.88;20.30;;;33.30;99.90;;;;;;5056513;28;20016;-87
2022/03/21 09:26:45;;;;;;;25.48;19.98;;;31.40;99.90;;;;;;5050165;28;20111;-86
2022/03/21 09:29:11;;;;;;;24.67;19.15;;;33.10;99.90;;;;;;5056186;28;20048;-86
2022/03/21 09:31:38;;;;;;;27.52;20.02;;;31.10;99.90;;;;;;5056396;28;20025;-86
2022/03/21 09:34:04;;;;;;;26.60;20.45;;;32.40;99.90;;;;;;5056150;28;20025;-86
2022/03/21 09:36:30;;;;;;;26.48;19.98;;;33.00;99.90;;;;;;5054873;28;20036;-85
2022/03/21 09:38:55;;;;;;;26.40;20.23;;;32.50;99.90;;;;;;5055913;28;20472;-87
2022/03/21 09:41:26;;;;;;;27.40;20.23;;;31.70;99.90;;;;;;5053549;28;20031;-84
2022/03/21 09:43:57;;;;;;;28.45;19.83;;;33.40;99.90;;;;;;5053423;28;20423;-86
2022/03/21 09:46:23;;;;;;;23.38;19.38;;;34.40;99.90;;;;;;5036455;28;20103;-86
2022/03/21 09:48:52;;;;;;;25.52;18.90;;;34.30;99.90;;;;;;5041193;28;20041;-85
2022/03/21 09:51:38;;;;;;;24.50;19.33;;;34.90;99.90;;;;;;5038503;28;20047;-84
2022/03/21 09:54:03;;;;;;;23.88;17.60;;;34.00;99.90;;;;;;5040297;28;20071;-86
2022/03/21 09:56:30;;;;;;;24.67;18.83;;;32.50;99.90;;;;;;5047404;28;20029;-85
2022/03/21 09:58:59;;;;;;;23.90;18.73;;;32.70;99.90;;;;;;5052278;28;20116;-86
2022/03/21 10:01:29;;;;;;;22.08;18.15;;;32.70;99.90;;;;;;5051283;28;20045;-86
2022/03/21 10:03:55;;;;;;;24.65;18.80;;;33.60;99.90;;;;;;5047865;28;20034;-85
2022/03/21 10:06:28;;;;;;;26.17;19.10;;;32.10;99.90;;;;;;5051654;28;20100;-86
2022/03/21 10:09:04;;;;;;;25.92;17.77;;;32.50;99.90;;;;;;5052290;28;20029;-85
2022/03/21 10:11:30;;;;;;;24.20;18.50;;;34.10;99.90;;;;;;5044725;28;20413;-86
2022/03/21 10:13:56;;;;;;;23.00;18.48;;;34.30;99.90;;;;;;5054331;28;20588;-87
2022/03/21 10:16:21;;;;;;;22.63;18.13;;;34.20;99.90;;;;;;5053540;28;20032;-86
2022/03/21 10:18:53;;;;;;;24.58;18.75;;;33.80;99.90;;;;;;5053713;28;20055;-86
2022/03/21 10:21:20;;;;;;;24.00;17.48;;;33.60;99.90;;;;;;5052875;28;20051;-86
2022/03/21 10:24:02;;;;;;;28.40;20.08;;;33.90;99.90;;;;;;5052238;28;20066;-86
2022/03/21 10:26:34;;;;;;;22.52;17.52;;;34.30;99.90;;;;;;5052177;28;20111;-86
2022/03/21 10:29:02;;;;;;;26.80;17.95;;;32.30;99.90;;;;;;5051508;28;20033;-86
2022/03/21 10:31:37;;;;;;;25.30;18.40;;;31.80;99.90;;;;;;5052303;28;20097;-86
2022/03/21 10:34:12;;;;;;;22.92;17.40;;;31.80;99.90;;;;;;5067219;28;20580;-85
2022/03/21 10:36:58;;;;;;;22.60;17.20;;;31.60;99.90;;;;;;5048928;28;20112;-86
2022/03/21 10:39:24;;;;;;;22.50;15.93;;;30.30;99.90;;;;;;5037297;28;20392;-86
2022/03/21 10:41:56;;;;;;;26.45;17.98;;;29.60;99.90;;;;;;5038482;28;20163;-87
2022/03/21 10:44:21;;;;;;;24.77;17.20;;;29.00;99.90;;;;;;5045793;28;20020;-85
2022/03/21 10:46:53;;;;;;;26.33;16.95;;;27.40;99.90;;;;;;5040514;28;20025;-86
2022/03/21 10:49:30;;;;;;;22.67;17.33;;;26.10;99.90;;;;;;5050439;28;20025;-85
2022/03/21 10:51:56;;;;;;;22.65;16.33;;;24.40;99.90;;;;;;5048998;28;20021;-86
2022/03/21 10:54:38;;;;;;;23.77;15.48;;;23.20;99.90;;;;;;5035014;28;20366;-86
2022/03/21 10:57:05;;;;;;;23.35;15.80;;;22.30;99.90;;;;;;5035457;28;20021;-86
2022/03/21 10:59:32;;;;;;;22.05;15.80;;;21.20;99.90;;;;;;5043015;28;20503;-86
2022/03/21 11:02:12;;;;;;;21.88;15.65;;;20.70;99.90;;;;;;5044084;28;20472;-86
2022/03/21 11:04:40;;;;;;;;;;;20.30;99.90;;;;;;5054103;28;20021;-86
2022/03/21 11:07:08;;;;;;;20.73;15.13;;;20.00;99.90;;;;;;5052149;28;19908;-86
2022/03/21 11:09:35;;;;;;;22.40;14.77;;;19.30;99.90;;;;;;5050552;28;20058;-85
2022/03/21 11:12:02;;;;;;;19.90;14.27;;;19.30;99.90;;;;;;5041730;28;20045;-85
2022/03/21 11:14:29;;;;;;;19.60;13.75;;;18.70;99.90;;;;;;5043287;28;20065;-85
2022/03/21 11:16:55;;;;;;;20.65;14.15;;;18.70;99.90;;;;;;5038810;28;20031;-85
2022/03/21 11:19:22;;;;;;;20.75;13.98;;;18.30;99.90;;;;;;5038811;28;20381;-86
2022/03/21 11:21:49;;;;;;;17.73;13.35;;;18.30;99.90;;;;;;5046328;28;20116;-87
2022/03/21 11:24:15;;;;;;;19.10;13.48;;;18.30;99.90;;;;;;5040376;28;20064;-86
2022/03/21 11:27:10;;;;;;;17.67;12.73;;;18.00;99.90;;;;;;5040040;28;20021;-87
2022/03/21 11:29:44;;;;;;;22.08;13.98;;;17.60;99.90;;;;;;5046742;28;20029;-86
2022/03/21 11:32:29;;;;;;;17.92;12.73;;;17.70;99.90;;;;;;5053214;28;20032;-86
2022/03/21 11:34:54;;;;;;;20.58;14.30;;;17.10;99.90;;;;;;5043393;28;20051;-86
2022/03/21 11:37:31;;;;;;;19.60;14.20;;;17.40;99.90;;;;;;5050919;28;20464;-86
2022/03/21 11:40:27;;;;;;;19.98;13.82;;;17.40;99.90;;;;;;5056049;28;20512;-86
2022/03/21 11:42:56;;;;;;;19.42;13.63;;;17.60;99.90;;;;;;5045261;28;20080;-85
2022/03/21 11:45:26;;;;;;;18.98;13.27;;;16.90;99.90;;;;;;5055278;28;20444;-85
2022/03/21 11:48:17;;;;;;;20.08;11.77;;;16.40;99.90;;;;;;5052605;28;20044;-86
2022/03/21 11:50:43;;;;;;;16.27;11.75;;;16.70;99.90;;;;;;5054346;28;20037;-85
2022/03/21 11:53:11;;;;;;;18.42;12.10;;;17.10;99.90;;;;;;5054456;28;20039;-85
2022/03/21 11:55:41;;;;;;;19.85;13.23;;;17.20;99.90;;;;;;5056903;28;20143;-85
2022/03/21 11:58:22;;;;;;;19.20;13.23;;;17.00;99.90;;;;;;5064682;28;20056;-85
2022/03/21 12:01:04;;;;;;;19.08;12.70;;;17.40;99.90;;;;;;5039401;28;20037;-85
2022/03/21 12:03:29;;;;;;;18.58;11.88;;;17.30;99.90;;;;;;5046096;28;20368;-86
2022/03/21 12:05:55;;;;;;;19.02;11.82;;;17.30;99.90;;;;;;5044575;28;20032;-85
2022/03/21 12:08:31;;;;;;;17.20;11.43;;;17.40;99.90;;;;;;5055301;28;20435;-85
2022/03/21 12:10:56;;;;;;;18.50;11.73;;;17.40;99.90;;;;;;5054257;28;20044;-84
2022/03/21 12:13:22;;;;;;;16.05;10.43;;;17.40;99.90;;;;;;5055647;28;20105;-84
2022/03/21 12:15:51;;;;;;;16.98;11.15;;;17.50;99.90;;;;;;5055580;28;20077;-85
2022/03/21 12:18:19;;;;;;;16.50;11.43;;;17.40;99.90;;;;;;5054066;28;20114;-85
2022/03/21 12:20:46;;;;;;;18.05;11.82;;;17.20;99.90;;;;;;5055485;28;20492;-85
2022/03/21 12:23:21;;;;;;;18.02;11.05;;;17.30;99.90;;;;;;5053837;28;20017;-85
2022/03/21 12:25:49;;;;;;;16.45;10.98;;;17.30;99.90;;;;;;5041845;28;20024;-85
2022/03/21 12:31:30;;;;;;;16.42;10.10;;;17.20;99.90;;;;;;5050286;28;20071;-85
2022/03/21 12:34:33;;;;;;;14.50;9.98;;;17.30;99.90;;;;;;5045128;28;20032;-85
2022/03/21 12:37:09;;;;;;;15.70;10.40;;;17.30;99.90;;;;;;5044132;28;20035;-85
2022/03/21 12:39:36;;;;;;;15.65;10.13;;;17.20;99.90;;;;;;5046260;28;20492;-86
2022/03/21 12:42:02;;;;;;;15.73;10.23;;;17.40;99.90;;;;;;5052486;28;20044;-86
2022/03/21 12:44:28;;;;;;;15.75;10.55;;;17.10;99.90;;;;;;5053578;28;20025;-86
2022/03/21 12:46:57;;;;;;;17.83;10.80;;;16.90;99.90;;;;;;5047757;28;20052;-86
2022/03/21 12:49:23;;;;;;;14.95;9.88;;;17.10;99.90;;;;;;5045815;28;20074;-85
2022/03/21 12:51:56;;;;;;;14.52;10.27;;;17.00;99.90;;;;;;5051233;28;20443;-85
2022/03/21 12:54:24;;;;;;;14.23;9.75;;;17.20;99.90;;;;;;5046346;28;20048;-85
2022/03/21 12:56:50;;;;;;;13.75;9.93;;;17.20;99.90;;;;;;5045927;28;20087;-85
2022/03/21 12:59:21;;;;;;;16.17;9.38;;;17.20;99.90;;;;;;5043211;28;20109;-84